createdAt,value
2018-07-28T00:00:51.992Z,18.30
2018-07-28T00:03:50.085Z,18.23
2018-07-28T00:06:49.185Z,18.23
2018-07-28T00:09:47.216Z,18.23
2018-07-28T00:12:45.387Z,18.20
2018-07-28T00:15:43.552Z,18.18
2018-07-28T00:18:41.968Z,18.19
2018-07-28T00:21:41.324Z,18.18
2018-07-28T00:24:39.136Z,18.17
2018-07-28T00:27:38.536Z,18.13
2018-07-28T00:30:37.310Z,18.11
2018-07-28T00:33:35.902Z,18.12
2018-07-28T00:36:35.234Z,18.15
2018-07-28T00:39:33.157Z,18.04
2018-07-28T00:42:31.613Z,17.96
2018-07-28T00:45:30.556Z,17.92
2018-07-28T00:48:28.602Z,17.87
2018-07-28T00:51:27.076Z,17.86
2018-07-28T00:54:26.300Z,17.85
2018-07-28T00:57:24.138Z,17.84
2018-07-28T01:00:23.524Z,17.85
2018-07-28T01:03:22.193Z,17.88
2018-07-28T01:06:20.776Z,17.90
2018-07-28T01:09:22.364Z,17.92
2018-07-28T01:12:21.513Z,17.85
2018-07-28T01:15:21.711Z,17.81
2018-07-28T01:18:19.964Z,17.78
2018-07-28T01:21:18.312Z,17.80
2018-07-28T01:24:16.676Z,17.83
2018-07-28T01:27:14.872Z,17.85
2018-07-28T01:30:12.973Z,17.83
2018-07-28T01:33:12.527Z,17.78
2018-07-28T01:36:10.985Z,17.75
2018-07-28T01:39:10.176Z,17.75
2018-07-28T01:42:08.364Z,17.78
2018-07-28T01:45:06.541Z,17.80
2018-07-28T01:48:05.244Z,17.89
2018-07-28T01:51:03.891Z,17.87
2018-07-28T01:54:02.041Z,17.87
2018-07-28T01:57:00.453Z,17.89
2018-07-28T01:59:58.885Z,17.95
2018-07-28T02:02:58.352Z,17.96
2018-07-28T02:05:56.529Z,18.04
2018-07-28T02:08:54.633Z,17.98
2018-07-28T02:11:53.892Z,17.90
2018-07-28T02:14:52.341Z,17.84
2018-07-28T02:17:50.612Z,17.81
2018-07-28T02:20:48.860Z,17.77
2018-07-28T02:23:47.156Z,17.74
2018-07-28T02:26:47.511Z,17.66
2018-07-28T02:29:48.707Z,17.71
2018-07-28T02:32:46.953Z,17.77
2018-07-28T02:35:45.221Z,17.79
2018-07-28T02:38:43.188Z,17.77
2018-07-28T02:41:41.451Z,17.75
2018-07-28T02:44:39.605Z,17.82
2018-07-28T02:47:38.628Z,17.82
2018-07-28T02:50:38.218Z,17.76
2018-07-28T02:53:36.433Z,17.64
2018-07-28T02:56:35.891Z,17.55
2018-07-28T02:59:33.625Z,17.70
2018-07-28T03:02:32.000Z,17.89
2018-07-28T03:05:29.765Z,18.04
2018-07-28T03:08:30.953Z,18.00
2018-07-28T03:11:29.168Z,17.93
2018-07-28T03:14:27.367Z,17.96
2018-07-28T03:17:26.135Z,17.91
2018-07-28T03:20:24.063Z,17.87
2018-07-28T03:23:22.129Z,17.70
2018-07-28T03:26:21.245Z,17.58
2018-07-28T03:29:19.068Z,17.61
2018-07-28T03:32:17.780Z,17.65
2018-07-28T03:35:16.947Z,17.59
2018-07-28T03:38:14.603Z,17.61
2018-07-28T03:41:13.600Z,17.72
2018-07-28T03:44:11.713Z,17.68
2018-07-28T03:47:10.830Z,17.67
2018-07-28T03:50:10.304Z,17.68
2018-07-28T03:53:09.258Z,17.69
2018-07-28T03:56:10.069Z,17.68
2018-07-28T03:59:07.996Z,17.67
2018-07-28T04:02:06.155Z,17.74
2018-07-28T04:05:04.601Z,17.78
2018-07-28T04:08:03.084Z,17.90
2018-07-28T04:11:01.232Z,18.16
2018-07-28T04:14:00.451Z,18.32
2018-07-28T04:16:59.556Z,18.39
2018-07-28T04:19:59.339Z,18.53
2018-07-28T04:22:59.702Z,18.60
2018-07-28T04:25:57.704Z,18.67
2018-07-28T04:28:56.150Z,18.75
2018-07-28T04:31:55.256Z,18.84
2018-07-28T04:34:53.904Z,18.94
2018-07-28T04:37:52.313Z,19.07
2018-07-28T04:40:51.450Z,19.20
2018-07-28T04:43:49.476Z,19.34
2018-07-28T04:46:48.375Z,19.45
2018-07-28T04:49:46.964Z,19.45
2018-07-28T04:52:45.329Z,19.50
2018-07-28T04:55:43.308Z,19.52
2018-07-28T04:58:42.174Z,19.59
2018-07-28T05:01:40.528Z,19.71
2018-07-28T05:04:38.404Z,19.87
2018-07-28T05:07:37.244Z,19.97
2018-07-28T05:10:37.351Z,20.04
2018-07-28T05:13:36.001Z,20.18
2018-07-28T05:16:34.135Z,20.29
2018-07-28T05:19:32.302Z,20.46
2018-07-28T05:22:30.744Z,20.61
2018-07-28T05:25:29.054Z,20.77
2018-07-28T05:28:27.445Z,20.97
2018-07-28T05:31:28.910Z,21.08
2018-07-28T05:34:27.304Z,21.14
2018-07-28T05:37:27.599Z,21.28
2018-07-28T05:40:25.553Z,21.36
2018-07-28T05:43:23.560Z,21.52
2018-07-28T05:46:21.744Z,21.65
2018-07-28T05:49:20.176Z,21.73
2018-07-28T05:52:18.629Z,21.86
2018-07-28T05:55:17.319Z,21.99
2018-07-28T05:58:15.780Z,22.17
2018-07-28T06:01:15.390Z,22.16
2018-07-28T06:04:13.519Z,22.15
2018-07-28T06:07:11.873Z,22.29
2018-07-28T06:10:11.411Z,22.48
2018-07-28T06:13:09.989Z,22.61
2018-07-28T06:16:08.120Z,22.69
2018-07-28T06:19:08.454Z,22.86
2018-07-28T06:22:06.854Z,22.98
2018-07-28T06:25:05.397Z,23.11
2018-07-28T06:28:03.534Z,23.21
2018-07-28T06:31:05.909Z,23.31
2018-07-28T06:34:03.988Z,23.38
2018-07-28T06:37:02.095Z,23.50
2018-07-28T06:40:00.233Z,23.68
2018-07-28T06:42:58.385Z,23.79
2018-07-28T06:45:56.568Z,23.84
2018-07-28T06:48:56.427Z,23.90
2018-07-28T06:51:54.564Z,23.94
2018-07-28T06:54:52.755Z,24.01
2018-07-28T06:57:51.207Z,24.15
2018-07-28T07:00:49.698Z,24.21
2018-07-28T07:03:47.735Z,24.20
2018-07-28T07:06:45.970Z,24.27
2018-07-28T07:09:46.416Z,24.27
2018-07-28T07:12:44.818Z,24.34
2018-07-28T07:15:43.644Z,24.46
2018-07-28T07:18:41.887Z,24.53
2018-07-28T07:21:42.326Z,24.63
2018-07-28T07:24:41.456Z,24.69
2018-07-28T07:27:40.165Z,24.78
2018-07-28T07:30:37.973Z,24.84
2018-07-28T07:33:36.412Z,24.92
2018-07-28T07:36:34.496Z,25.01
2018-07-28T07:39:32.956Z,24.90
2018-07-28T07:42:31.140Z,24.94
2018-07-28T07:45:29.153Z,25.03
2018-07-28T07:48:29.135Z,25.09
2018-07-28T07:51:28.561Z,25.20
2018-07-28T07:54:26.959Z,25.20
2018-07-28T07:57:25.620Z,25.20
2018-07-28T08:00:23.980Z,25.21
2018-07-28T08:03:22.219Z,25.33
2018-07-28T08:06:20.520Z,25.39
2018-07-28T08:09:18.355Z,25.51
2018-07-28T08:12:16.464Z,25.69
2018-07-28T08:15:15.640Z,25.72
2018-07-28T08:18:14.703Z,25.78
2018-07-28T08:21:13.053Z,25.95
2018-07-28T08:24:11.144Z,26.06
2018-07-28T08:27:09.488Z,26.16
2018-07-28T08:30:07.496Z,26.27
2018-07-28T08:33:05.780Z,26.33
2018-07-28T08:36:04.715Z,26.47
2018-07-28T08:39:04.556Z,26.58
2018-07-28T08:42:02.805Z,26.72
2018-07-28T08:45:01.903Z,26.91
2018-07-28T08:48:01.142Z,27.06
2018-07-28T08:50:59.299Z,27.20
2018-07-28T08:53:57.464Z,27.26
2018-07-28T08:56:55.689Z,27.42
2018-07-28T08:59:53.998Z,27.52
2018-07-28T09:02:52.156Z,27.54
2018-07-28T09:05:50.688Z,27.58
2018-07-28T09:08:49.481Z,27.83
2018-07-28T09:11:47.425Z,28.06
2018-07-28T09:14:45.293Z,28.30
2018-07-28T09:17:43.325Z,28.58
2018-07-28T09:20:41.375Z,28.82
2018-07-28T09:23:40.114Z,28.89
2018-07-28T09:26:38.066Z,28.89
2018-07-28T09:29:36.554Z,28.88
2018-07-28T09:32:34.796Z,29.02
2018-07-28T09:35:33.386Z,29.10
2018-07-28T09:38:31.478Z,29.04
2018-07-28T09:41:29.903Z,28.96
2018-07-28T09:44:28.174Z,28.98
2018-07-28T09:47:26.568Z,28.98
2018-07-28T09:50:24.361Z,29.17
2018-07-28T09:53:24.114Z,29.45
2018-07-28T09:56:21.924Z,29.82
2018-07-28T09:59:20.208Z,29.93
2018-07-28T10:02:19.200Z,30.12
2018-07-28T10:05:17.656Z,30.25
2018-07-28T10:08:15.919Z,30.20
2018-07-28T10:11:14.578Z,30.25
2018-07-28T10:14:12.704Z,30.39
2018-07-28T10:17:11.541Z,30.73
2018-07-28T10:20:09.873Z,30.84
2018-07-28T10:23:07.972Z,30.69
2018-07-28T10:26:07.044Z,30.40
2018-07-28T10:29:05.216Z,30.09
2018-07-28T10:32:04.681Z,29.74
2018-07-28T10:35:03.100Z,29.89
2018-07-28T10:38:01.106Z,30.13
2018-07-28T10:41:00.313Z,30.18
2018-07-28T10:43:58.626Z,30.13
2018-07-28T10:46:56.900Z,29.89
2018-07-28T10:49:54.896Z,30.04
2018-07-28T10:52:54.085Z,30.46
2018-07-28T10:55:53.242Z,31.02
2018-07-28T10:58:52.460Z,31.48
2018-07-28T11:01:53.255Z,31.79
2018-07-28T11:04:52.694Z,32.10
2018-07-28T11:07:50.597Z,32.17
2018-07-28T11:10:48.792Z,32.02
2018-07-28T11:13:46.948Z,31.89
2018-07-28T11:16:45.238Z,31.89
2018-07-28T11:19:44.414Z,32.62
2018-07-28T11:22:42.594Z,32.61
2018-07-28T11:25:40.558Z,32.57
2018-07-28T11:28:38.711Z,32.78
2018-07-28T11:32:50.644Z,32.74
2018-07-28T11:37:01.021Z,32.27
2018-07-28T11:40:11.184Z,32.32
2018-07-28T11:43:21.405Z,32.14
2018-07-28T11:46:19.523Z,32.29
2018-07-28T11:49:17.470Z,32.31
2018-07-28T11:52:15.681Z,33.08
2018-07-28T11:55:13.777Z,32.81
2018-07-28T11:58:12.148Z,32.28
2018-07-28T12:01:11.246Z,32.83
2018-07-28T12:04:10.500Z,33.36
2018-07-28T12:07:09.004Z,34.80
2018-07-28T12:10:07.532Z,36.08
2018-07-28T12:13:08.805Z,36.92
2018-07-28T12:16:06.850Z,37.89
2018-07-28T12:19:05.288Z,38.65
2018-07-28T12:22:03.456Z,39.29
2018-07-28T12:25:01.750Z,39.68
2018-07-28T12:27:59.964Z,40.41
2018-07-28T12:30:58.490Z,41.01
2018-07-28T12:33:56.412Z,41.28
2018-07-28T12:36:54.709Z,41.27
2018-07-28T12:39:52.721Z,41.22
2018-07-28T12:42:52.037Z,40.08
2018-07-28T12:45:49.773Z,38.72
2018-07-28T12:48:47.986Z,37.82
2018-07-28T12:51:46.235Z,36.97
2018-07-28T12:54:44.335Z,35.98
2018-07-28T12:57:42.553Z,35.37
2018-07-28T13:00:40.425Z,35.02
2018-07-28T13:03:38.870Z,34.65
2018-07-28T13:06:37.242Z,34.18
2018-07-28T13:09:35.791Z,34.46
2018-07-28T13:12:34.008Z,35.23
2018-07-28T13:15:32.246Z,35.80
2018-07-28T13:18:30.709Z,36.26
2018-07-28T13:21:28.993Z,36.56
2018-07-28T13:24:26.977Z,36.80
2018-07-28T13:27:25.296Z,36.58
2018-07-28T13:30:23.582Z,36.34
2018-07-28T13:33:21.930Z,36.30
2018-07-28T13:36:22.360Z,36.48
2018-07-28T13:39:21.632Z,36.67
2018-07-28T13:42:19.872Z,37.16
2018-07-28T13:45:18.037Z,37.79
2018-07-28T13:48:16.379Z,38.26
2018-07-28T13:51:14.484Z,39.02
2018-07-28T13:54:12.509Z,39.46
2018-07-28T13:57:11.036Z,39.73
2018-07-28T14:00:09.121Z,40.08
2018-07-28T14:03:08.777Z,40.09
2018-07-28T14:06:08.192Z,40.09
2018-07-28T14:09:08.197Z,39.48
2018-07-28T14:12:06.346Z,40.08
2018-07-28T14:15:04.391Z,40.03
2018-07-28T14:18:02.787Z,40.30
2018-07-28T14:21:00.816Z,40.63
2018-07-28T14:24:01.641Z,41.08
2018-07-28T14:27:00.738Z,41.64
2018-07-28T14:29:59.318Z,41.67
2018-07-28T14:32:57.466Z,41.72
2018-07-28T14:35:56.365Z,41.74
2018-07-28T14:38:54.685Z,42.05
2018-07-28T14:42:02.035Z,40.34
2018-07-28T14:45:00.747Z,38.83
2018-07-28T14:47:58.437Z,38.73
2018-07-28T14:50:56.322Z,38.18
2018-07-28T14:53:54.455Z,37.72
2018-07-28T14:56:52.917Z,37.17
2018-07-28T14:59:53.601Z,36.87
2018-07-28T15:02:52.000Z,36.93
2018-07-28T15:05:51.488Z,36.75
2018-07-28T15:08:49.553Z,36.57
2018-07-28T15:11:48.297Z,36.61
2018-07-28T15:14:46.348Z,36.85
2018-07-28T15:17:44.855Z,37.32
2018-07-28T15:20:43.828Z,38.05
2018-07-28T15:23:41.799Z,38.99
2018-07-28T15:26:41.507Z,39.69
2018-07-28T15:29:40.059Z,39.38
2018-07-28T15:32:39.476Z,39.59
2018-07-28T15:35:37.941Z,39.45
2018-07-28T15:38:36.527Z,39.24
2018-07-28T15:41:34.921Z,38.35
2018-07-28T15:44:33.216Z,37.35
2018-07-28T15:47:32.835Z,35.78
2018-07-28T15:50:33.434Z,34.34
2018-07-28T15:53:31.421Z,33.43
2018-07-28T15:56:29.736Z,33.05
2018-07-28T15:59:28.344Z,32.77
2018-07-28T16:02:26.255Z,32.60
2018-07-28T16:05:25.680Z,32.37
2018-07-28T16:08:24.105Z,32.22
2018-07-28T16:11:22.181Z,32.23
2018-07-28T16:14:20.597Z,32.06
2018-07-28T16:17:19.805Z,31.70
2018-07-28T16:20:17.957Z,31.38
2018-07-28T16:23:17.349Z,31.14
2018-07-28T16:26:15.804Z,30.77
2018-07-28T16:29:13.967Z,30.56
2018-07-28T16:32:11.716Z,30.52
2018-07-28T16:35:10.196Z,30.62
2018-07-28T16:38:08.292Z,31.28
2018-07-28T16:41:07.137Z,31.94
2018-07-28T16:44:05.087Z,33.54
2018-07-28T16:47:03.194Z,35.49
2018-07-28T16:50:01.807Z,36.90
2018-07-28T16:53:01.323Z,37.72
2018-07-28T16:55:59.778Z,38.16
2018-07-28T16:59:00.364Z,37.75
2018-07-28T17:01:59.882Z,37.29
2018-07-28T17:04:58.008Z,36.63
2018-07-28T17:07:57.276Z,36.53
2018-07-28T17:10:56.340Z,36.26
2018-07-28T17:13:55.648Z,36.25
2018-07-28T17:16:53.701Z,36.90
2018-07-28T17:19:52.197Z,37.05
2018-07-28T17:22:50.927Z,36.82
2018-07-28T17:25:49.388Z,36.76
2018-07-28T17:28:47.645Z,36.13
2018-07-28T17:31:45.596Z,35.40
2018-07-28T17:34:43.679Z,34.97
2018-07-28T17:37:41.922Z,34.64
2018-07-28T17:40:40.047Z,34.42
2018-07-28T17:43:38.253Z,34.01
2018-07-28T17:46:36.508Z,33.92
2018-07-28T17:49:38.320Z,33.65
2018-07-28T17:52:36.600Z,33.08
2018-07-28T17:55:34.675Z,32.63
2018-07-28T17:58:32.673Z,32.35
2018-07-28T18:01:32.953Z,32.28
2018-07-28T18:04:31.109Z,32.16
2018-07-28T18:07:29.082Z,31.94
2018-07-28T18:10:28.356Z,31.70
2018-07-28T18:13:26.622Z,31.41
2018-07-28T18:16:25.002Z,31.16
2018-07-28T18:19:24.413Z,30.78
2018-07-28T18:22:22.451Z,30.38
2018-07-28T18:25:20.559Z,29.95
2018-07-28T18:28:18.744Z,29.53
2018-07-28T18:31:17.064Z,29.31
2018-07-28T18:34:16.027Z,29.24
2018-07-28T18:37:14.083Z,29.02
2018-07-28T18:40:11.991Z,28.75
2018-07-28T18:43:10.130Z,28.49
2018-07-28T18:46:08.526Z,28.29
2018-07-28T18:49:06.853Z,28.18
2018-07-28T18:52:05.500Z,28.11
2018-07-28T18:55:03.537Z,28.00
2018-07-28T18:58:02.857Z,27.57
2018-07-28T19:01:01.351Z,27.22
2018-07-28T19:03:59.630Z,26.93
2018-07-28T19:06:57.772Z,26.79
2018-07-28T19:09:59.097Z,26.65
2018-07-28T19:13:03.509Z,26.63
2018-07-28T19:16:01.901Z,26.54
2018-07-28T19:19:06.676Z,26.46
2018-07-28T19:22:05.061Z,26.31
2018-07-28T19:25:03.324Z,26.32
2018-07-28T19:28:07.583Z,26.16
2018-07-28T19:31:07.087Z,25.93
2018-07-28T19:34:05.864Z,25.70
2018-07-28T19:37:10.477Z,25.43
2018-07-28T19:40:08.956Z,25.22
2018-07-28T19:43:07.308Z,25.13
2018-07-28T19:46:05.789Z,24.98
2018-07-28T19:49:04.801Z,24.83
2018-07-28T19:52:03.448Z,24.76
2018-07-28T19:55:01.774Z,24.66
2018-07-28T19:57:59.915Z,24.61
2018-07-28T20:00:58.412Z,24.61
2018-07-28T20:03:57.873Z,24.52
2018-07-28T20:06:55.776Z,24.39
2018-07-28T20:09:53.876Z,24.25
2018-07-28T20:12:52.388Z,24.12
2018-07-28T20:15:50.428Z,24.07
2018-07-28T20:18:49.193Z,24.00
2018-07-28T20:21:48.325Z,23.95
2018-07-28T20:24:46.604Z,23.95
2018-07-28T20:27:44.885Z,23.89
2018-07-28T20:30:44.073Z,23.89
2018-07-28T20:33:42.605Z,23.85
2018-07-28T20:36:45.325Z,23.80
2018-07-28T20:39:43.588Z,23.73
2018-07-28T20:42:41.979Z,23.65
2018-07-28T20:45:41.802Z,23.56
2018-07-28T20:48:39.844Z,23.54
2018-07-28T20:51:37.995Z,23.39
2018-07-28T20:54:36.085Z,23.26
2018-07-28T20:57:35.456Z,23.09
2018-07-28T21:00:35.030Z,23.07
2018-07-28T21:03:33.394Z,23.04
2018-07-28T21:06:32.983Z,23.04
2018-07-28T21:09:31.664Z,22.98
2018-07-28T21:12:29.517Z,22.92
2018-07-28T21:15:27.773Z,22.87
2018-07-28T21:18:26.576Z,22.88
2018-07-28T21:21:25.046Z,22.96
2018-07-28T21:24:24.297Z,22.96
2018-07-28T21:27:22.784Z,22.92
2018-07-28T21:30:20.881Z,22.85
2018-07-28T21:33:21.803Z,22.87
2018-07-28T21:36:19.880Z,22.92
2018-07-28T21:39:19.317Z,22.87
2018-07-28T21:42:17.812Z,22.84
2018-07-28T21:45:16.233Z,22.74
2018-07-28T21:48:14.127Z,22.67
2018-07-28T21:51:13.536Z,22.70
2018-07-28T21:54:11.536Z,22.73
2018-07-28T21:57:09.955Z,22.69
2018-07-28T22:00:08.796Z,22.66
2018-07-28T22:03:07.509Z,22.64
2018-07-28T22:06:05.228Z,22.67
2018-07-28T22:09:03.197Z,22.55
2018-07-28T22:12:00.809Z,22.42
2018-07-28T22:14:59.424Z,22.32
2018-07-28T22:17:58.164Z,22.30
2018-07-28T22:20:57.981Z,22.34
2018-07-28T22:23:57.042Z,22.38
2018-07-28T22:26:55.467Z,22.40
2018-07-28T22:29:53.680Z,22.41
2018-07-28T22:32:51.989Z,22.39
2018-07-28T22:35:51.290Z,22.28
2018-07-28T22:38:49.441Z,22.17
2018-07-28T22:41:48.778Z,22.06
2018-07-28T22:44:47.000Z,22.03
2018-07-28T22:47:45.180Z,21.88
2018-07-28T22:50:43.490Z,21.85
2018-07-28T22:53:41.882Z,21.84
2018-07-28T22:56:40.131Z,21.79
2018-07-28T22:59:38.203Z,21.75
2018-07-28T23:02:37.704Z,21.69
2018-07-28T23:05:35.957Z,21.73
2018-07-28T23:08:34.540Z,21.74
2018-07-28T23:11:33.105Z,21.78
2018-07-28T23:14:31.803Z,21.68
2018-07-28T23:17:30.042Z,21.59
2018-07-28T23:20:29.444Z,21.38
2018-07-28T23:23:28.824Z,21.32
2018-07-28T23:26:27.001Z,21.27
2018-07-28T23:29:25.648Z,21.17
2018-07-28T23:32:25.022Z,21.13
2018-07-28T23:35:23.503Z,21.22
2018-07-28T23:38:22.813Z,21.20
2018-07-28T23:41:20.968Z,21.12
2018-07-28T23:44:19.457Z,21.06
2018-07-28T23:47:17.996Z,21.02
2018-07-28T23:50:16.602Z,21.03
2018-07-28T23:53:15.360Z,21.03
2018-07-28T23:56:13.912Z,21.01
2018-07-28T23:59:13.432Z,21.10
